Valley View, Ohio
Current Conditions -  °F | °C
As of 10:53 AM on Saturday 25 Oct 2014 (Local Time) from KBKL Reporting Station
Few Clouds Few Clouds  
Wind Chill: 62°   Ceiling: Unl
Heat Index: 62°   Visibility: 10mi
Dew Point: 50°   Wind: 17mph
Humidity: 65%   Direction: 220°SW
Pressure: 29.83"   Gusts: NA
Location:  41.3833°N, 81.6531°W
Report Text: KBKL 251453Z 22015KT 10SM FEW050 17/10 A2983 RMK AO2 SLP102 T01670100 58019
Loading
Personal Weather Stations






























Interactive Weather Map
Tropical Storm Tracking
New forecast layout! Learn more

10-Day Weather Forecast

Advertisements
Track Severe Weather on mobile